createdAt,value
2019-04-06T00:01:28.619Z,97700.66
2019-04-06T00:03:57.366Z,97710.81
2019-04-06T00:06:26.115Z,97703.86
2019-04-06T00:08:54.881Z,97699.06
2019-04-06T00:11:23.644Z,97708.40
2019-04-06T00:13:52.409Z,97702.77
2019-04-06T00:16:21.240Z,97717.52
2019-04-06T00:18:50.009Z,97709.46
2019-04-06T00:21:18.834Z,97716.13
2019-04-06T00:23:47.579Z,97712.29
2019-04-06T00:26:16.343Z,97713.25
2019-04-06T00:28:45.076Z,97714.32
2019-04-06T00:31:51.404Z,97711.86
2019-04-06T00:34:20.422Z,97712.73
2019-04-06T00:36:49.151Z,97706.10
2019-04-06T00:39:17.975Z,97701.15
2019-04-06T00:41:46.991Z,97703.70
2019-04-06T00:44:16.903Z,97705.46
2019-04-06T00:46:45.849Z,97709.64
2019-04-06T00:49:14.571Z,97707.54
2019-04-06T00:51:43.395Z,97703.58
2019-04-06T00:54:12.128Z,97706.87
2019-04-06T00:56:40.883Z,97699.69
2019-04-06T00:59:09.794Z,97707.71
2019-04-06T01:01:38.536Z,97710.09
2019-04-06T01:04:07.365Z,97714.05
2019-04-06T01:06:36.195Z,97720.13
2019-04-06T01:09:08.898Z,97724.05
2019-04-06T01:11:37.730Z,97725.51
2019-04-06T01:14:06.544Z,97726.12
2019-04-06T01:16:35.300Z,97730.80
2019-04-06T01:19:04.115Z,97729.91
2019-04-06T01:21:32.825Z,97729.44
2019-04-06T01:24:01.581Z,97724.97
2019-04-06T01:26:30.347Z,97725.82
2019-04-06T01:28:59.277Z,97723.39
2019-04-06T01:31:28.364Z,97715.11
2019-04-06T01:33:59.030Z,97714.66
2019-04-06T01:36:27.625Z,97715.48
2019-04-06T01:38:56.399Z,97711.05
2019-04-06T01:41:25.256Z,97708.19
2019-04-06T01:43:54.149Z,97717.70
2019-04-06T01:46:22.903Z,97712.33
2019-04-06T01:48:51.639Z,97716.87
2019-04-06T01:51:20.420Z,97719.80
2019-04-06T01:53:49.181Z,97719.41
2019-04-06T01:56:19.053Z,97718.08
2019-04-06T01:58:48.055Z,97718.92
2019-04-06T02:01:21.744Z,97721.52
2019-04-06T02:03:50.935Z,97709.55
2019-04-06T02:06:19.729Z,97712.84
2019-04-06T02:08:48.557Z,97716.67
2019-04-06T02:11:17.327Z,97718.88
2019-04-06T02:13:46.181Z,97720.79
2019-04-06T02:16:14.921Z,97718.45
2019-04-06T02:18:43.681Z,97720.35
2019-04-06T02:21:12.430Z,97710.84
2019-04-06T02:23:41.439Z,97713.75
2019-04-06T02:26:10.532Z,97712.20
2019-04-06T02:28:39.285Z,97709.82
2019-04-06T02:31:14.684Z,97712.70
2019-04-06T02:34:07.898Z,97711.78
2019-04-06T02:36:55.702Z,97704.76
2019-04-06T02:39:35.033Z,97707.28
2019-04-06T02:42:14.715Z,97704.59
2019-04-06T02:44:43.464Z,97704.76
2019-04-06T02:47:12.257Z,97706.78
2019-04-06T02:49:40.999Z,97707.09
2019-04-06T02:52:10.048Z,97704.41
2019-04-06T02:54:38.789Z,97700.53
2019-04-06T02:57:07.519Z,97702.50
2019-04-06T02:59:36.514Z,97708.84
2019-04-06T03:02:05.502Z,97702.86
2019-04-06T03:04:34.263Z,97699.30
2019-04-06T03:07:03.070Z,97706.35
2019-04-06T03:09:31.882Z,97702.91
2019-04-06T03:12:00.696Z,97707.23
2019-04-06T03:14:29.467Z,97705.02
2019-04-06T03:16:58.278Z,97705.29
2019-04-06T03:19:30.629Z,97713.39
2019-04-06T03:22:00.066Z,97708.99
2019-04-06T03:24:29.874Z,97708.02
2019-04-06T03:27:02.443Z,97713.92
2019-04-06T03:29:30.642Z,97710.92
2019-04-06T03:31:59.945Z,97714.05
2019-04-06T03:34:32.209Z,97711.02
2019-04-06T03:37:01.090Z,97712.34
2019-04-06T03:39:29.867Z,97707.32
2019-04-06T03:41:58.647Z,97711.37
2019-04-06T03:44:27.388Z,97703.62
2019-04-06T03:46:56.630Z,97704.81
2019-04-06T03:49:25.425Z,97714.15
2019-04-06T03:51:54.535Z,97710.44
2019-04-06T03:54:23.284Z,97710.19
2019-04-06T03:56:52.314Z,97708.73
2019-04-06T03:59:21.067Z,97717.97
2019-04-06T04:01:50.088Z,97717.50
2019-04-06T04:04:18.926Z,97719.30
2019-04-06T04:06:47.652Z,97717.97
2019-04-06T04:09:16.680Z,97710.84
2019-04-06T04:11:45.413Z,97716.56
2019-04-06T04:14:14.297Z,97713.78
2019-04-06T04:19:03.515Z,97712.68
2019-04-06T04:21:32.298Z,97718.84
2019-04-06T04:24:01.144Z,97716.39
2019-04-06T04:26:29.953Z,97718.55
2019-04-06T04:28:58.721Z,97713.87
2019-04-06T04:31:27.457Z,97710.74
2019-04-06T04:33:56.209Z,97715.81
2019-04-06T04:36:24.960Z,97718.98
2019-04-06T04:38:53.861Z,97722.51
2019-04-06T04:41:22.618Z,97712.33
2019-04-06T04:43:51.371Z,97717.66
2019-04-06T04:46:20.112Z,97720.29
2019-04-06T04:48:48.877Z,97718.02
2019-04-06T04:51:17.754Z,97726.53
2019-04-06T04:53:47.937Z,97726.55
2019-04-06T04:56:16.688Z,97729.41
2019-04-06T04:58:45.510Z,97728.61
2019-04-06T05:01:14.247Z,97727.48
2019-04-06T05:03:43.012Z,97728.55
2019-04-06T05:06:11.751Z,97728.14
2019-04-06T05:08:40.516Z,97733.34
2019-04-06T05:11:09.251Z,97735.93
2019-04-06T05:13:38.013Z,97732.77
2019-04-06T05:16:11.210Z,97736.95
2019-04-06T05:18:40.819Z,97735.55
2019-04-06T05:21:09.725Z,97740.97
2019-04-06T05:23:38.812Z,97745.80
2019-04-06T05:26:07.807Z,97744.26
2019-04-06T05:28:36.892Z,97750.60
2019-04-06T05:31:06.140Z,97751.69
2019-04-06T05:33:34.915Z,97753.95
2019-04-06T05:36:04.514Z,97751.66
2019-04-06T05:38:33.338Z,97757.73
2019-04-06T05:41:02.093Z,97758.05
2019-04-06T05:43:30.828Z,97758.00
2019-04-06T05:45:59.584Z,97766.63
2019-04-06T05:48:28.419Z,97771.50
2019-04-06T05:50:57.261Z,97765.94
2019-04-06T05:53:25.997Z,97765.86
2019-04-06T05:55:54.839Z,97774.72
2019-04-06T05:58:23.879Z,97779.23
2019-04-06T06:00:52.756Z,97778.75
2019-04-06T06:03:21.463Z,97778.39
2019-04-06T06:05:50.203Z,97781.13
2019-04-06T06:08:19.134Z,97781.50
2019-04-06T06:10:47.917Z,97780.77
2019-04-06T06:13:16.665Z,97780.28
2019-04-06T06:15:45.500Z,97781.50
2019-04-06T06:18:25.357Z,97781.26
2019-04-06T06:20:45.505Z,97787.33
2019-04-06T06:23:14.579Z,97780.38
2019-04-06T06:25:43.331Z,97769.55
2019-04-06T06:28:14.943Z,97768.64
2019-04-06T06:30:43.133Z,97769.94
2019-04-06T06:33:12.011Z,97774.88
2019-04-06T06:35:40.881Z,97773.66
2019-04-06T06:38:09.898Z,97781.88
2019-04-06T06:40:38.801Z,97778.03
2019-04-06T06:43:07.516Z,97769.53
2019-04-06T06:45:36.378Z,97768.33
2019-04-06T06:48:05.426Z,97763.93
2019-04-06T06:50:34.693Z,97766.59
2019-04-06T06:53:03.841Z,97761.44
2019-04-06T06:55:32.982Z,97757.13
2019-04-06T06:58:01.854Z,97760.36
2019-04-06T07:00:30.608Z,97769.75
2019-04-06T07:02:59.785Z,97764.79
2019-04-06T07:05:28.797Z,97765.86
2019-04-06T07:07:57.854Z,97761.38
2019-04-06T07:10:26.694Z,97764.21
2019-04-06T07:12:55.515Z,97764.67
2019-04-06T07:15:24.308Z,97764.89
2019-04-06T07:17:53.153Z,97770.18
2019-04-06T07:20:22.066Z,97763.34
2019-04-06T07:22:51.133Z,97769.05
2019-04-06T07:25:19.894Z,97761.80
2019-04-06T07:27:48.638Z,97763.25
2019-04-06T07:30:17.812Z,97764.38
2019-04-06T07:32:46.497Z,97766.78
2019-04-06T07:35:15.404Z,97775.59
2019-04-06T07:37:44.498Z,97772.59
2019-04-06T07:40:14.515Z,97767.80
2019-04-06T07:42:43.488Z,97767.16
2019-04-06T07:45:12.913Z,97771.94
2019-04-06T07:47:42.751Z,97771.94
2019-04-06T07:50:12.927Z,97765.94
2019-04-06T07:52:42.652Z,97774.66
2019-04-06T07:55:12.774Z,97773.16
2019-04-06T07:57:41.954Z,97719.22
2019-04-06T08:00:11.241Z,97766.84
2019-04-06T08:02:40.077Z,97775.81
2019-04-06T08:05:09.088Z,97778.10
2019-04-06T08:07:37.956Z,97781.53
2019-04-06T08:10:06.956Z,97778.16
2019-04-06T08:12:35.702Z,97777.09
2019-04-06T08:15:05.472Z,97774.05
2019-04-06T08:17:34.305Z,97774.05
2019-04-06T08:20:03.120Z,97775.87
2019-04-06T08:22:31.874Z,97775.10
2019-04-06T08:25:01.100Z,97777.70
2019-04-06T08:27:29.838Z,97786.67
2019-04-06T08:29:58.608Z,97779.08
2019-04-06T08:32:27.504Z,97778.59
2019-04-06T08:34:56.320Z,97779.86
2019-04-06T08:37:25.075Z,97776.41
2019-04-06T08:39:53.877Z,97781.63
2019-04-06T08:42:22.642Z,97780.27
2019-04-06T08:44:51.394Z,97775.14
2019-04-06T08:47:20.225Z,97776.37
2019-04-06T08:49:49.319Z,97781.90
2019-04-06T08:52:18.077Z,97777.52
2019-04-06T08:54:46.817Z,97777.52
2019-04-06T08:57:15.574Z,97782.42
2019-04-06T08:59:44.326Z,97780.75
2019-04-06T09:02:13.160Z,97783.91
2019-04-06T09:04:41.915Z,97787.36
2019-04-06T09:07:10.750Z,97787.20
2019-04-06T09:09:39.747Z,97781.40
2019-04-06T09:12:08.445Z,97784.02
2019-04-06T09:14:37.218Z,97779.87
2019-04-06T09:17:06.117Z,97779.70
2019-04-06T09:19:34.847Z,97775.23
2019-04-06T09:22:03.678Z,97773.80
2019-04-06T09:24:32.503Z,97773.80
2019-04-06T09:27:01.272Z,97767.55
2019-04-06T09:29:30.070Z,97759.79
2019-04-06T09:31:58.856Z,97774.84
2019-04-06T09:34:30.554Z,97774.84
2019-04-06T09:36:58.486Z,97761.70
2019-04-06T09:39:27.273Z,97761.26
2019-04-06T09:41:55.989Z,97758.23
2019-04-06T09:44:56.224Z,97757.23
2019-04-06T09:47:28.956Z,97756.61
2019-04-06T09:50:07.176Z,97750.27
2019-04-06T09:52:45.394Z,97707.36
2019-04-06T09:55:39.282Z,97734.05
2019-04-06T09:58:20.149Z,97738.38
2019-04-06T10:01:03.868Z,97738.38
2019-04-06T10:03:40.359Z,97740.70
2019-04-06T10:06:33.738Z,97734.64
2019-04-06T10:09:24.819Z,97740.65
2019-04-06T10:12:11.624Z,97745.27
2019-04-06T10:14:54.007Z,97740.05
2019-04-06T10:17:40.669Z,97739.88
2019-04-06T10:20:21.761Z,97741.44
2019-04-06T10:23:19.128Z,97734.80
2019-04-06T10:25:53.616Z,97731.13
2019-04-06T10:28:50.340Z,97735.26
2019-04-06T10:31:37.501Z,97736.75
2019-04-06T10:34:15.560Z,97737.73
2019-04-06T10:36:59.857Z,97737.31
2019-04-06T10:39:39.353Z,97740.39
2019-04-06T10:42:30.527Z,97732.36
2019-04-06T10:45:21.688Z,97729.85
2019-04-06T10:48:12.231Z,97721.58
2019-04-06T10:50:52.046Z,97718.47
2019-04-06T10:53:39.022Z,97721.63
2019-04-06T10:56:19.807Z,97717.29
2019-04-06T10:59:15.426Z,97719.52
2019-04-06T11:02:02.549Z,97720.56
2019-04-06T11:04:36.305Z,97714.80
2019-04-06T11:07:24.296Z,97714.56
2019-04-06T11:10:09.345Z,97721.63
2019-04-06T11:12:46.022Z,97715.72
2019-04-06T11:15:32.885Z,97719.70
2019-04-06T11:18:22.721Z,97715.25
2019-04-06T11:21:11.105Z,97719.50
2019-04-06T11:23:46.861Z,97716.87
2019-04-06T11:26:26.997Z,97704.70
2019-04-06T11:29:16.865Z,97704.70
2019-04-06T11:31:56.954Z,97701.70
2019-04-06T11:34:39.179Z,97698.09
2019-04-06T11:37:14.894Z,97693.88
2019-04-06T11:39:56.157Z,97687.86
2019-04-06T11:42:47.189Z,97686.16
2019-04-06T11:45:28.150Z,97683.47
2019-04-06T11:48:14.576Z,97684.69
2019-04-06T11:51:12.118Z,97678.34
2019-04-06T11:53:48.773Z,97682.69
2019-04-06T11:56:35.108Z,97675.66
2019-04-06T11:59:23.025Z,97678.86
2019-04-06T12:02:02.162Z,97677.17
2019-04-06T12:05:05.488Z,97677.45
2019-04-06T12:07:52.072Z,97676.88
2019-04-06T12:10:29.180Z,97673.40
2019-04-06T12:13:16.089Z,97673.63
2019-04-06T12:15:53.635Z,97675.70
2019-04-06T12:18:31.992Z,97674.05
2019-04-06T12:21:25.619Z,97669.78
2019-04-06T12:24:22.889Z,97664.63
2019-04-06T12:27:20.284Z,97665.06
2019-04-06T12:30:08.780Z,97660.86
2019-04-06T12:32:55.731Z,97660.39
2019-04-06T12:35:50.216Z,97654.80
2019-04-06T12:38:38.127Z,97652.70
2019-04-06T12:41:17.232Z,97644.29
2019-04-06T12:44:14.513Z,97639.62
2019-04-06T12:46:52.890Z,97644.78
2019-04-06T12:49:46.656Z,97643.53
2019-04-06T12:52:37.274Z,97640.63
2019-04-06T12:55:25.500Z,97634.38
2019-04-06T12:58:05.808Z,97632.13
2019-04-06T13:00:53.299Z,97631.05
2019-04-06T13:03:51.413Z,97623.44
2019-04-06T13:06:47.042Z,97631.23
2019-04-06T13:09:26.574Z,97621.47
2019-04-06T13:12:13.070Z,97625.50
2019-04-06T13:14:54.445Z,97614.63
2019-04-06T13:17:30.131Z,97624.16
2019-04-06T13:20:16.985Z,97622.87
2019-04-06T13:23:00.779Z,97620.39
2019-04-06T13:25:57.637Z,97611.67
2019-04-06T13:28:51.508Z,97610.25
2019-04-06T13:31:44.992Z,97606.41
2019-04-06T13:34:44.928Z,97610.20
2019-04-06T13:37:22.705Z,97608.88
2019-04-06T13:40:10.521Z,97596.23
2019-04-06T13:43:10.679Z,97600.83
2019-04-06T13:45:59.307Z,97592.72
2019-04-06T13:48:46.001Z,97590.88
2019-04-06T13:51:28.828Z,97592.61
2019-04-06T13:54:12.323Z,97595.33
2019-04-06T13:56:49.492Z,97592.53
2019-04-06T13:59:27.332Z,97591.89
2019-04-06T14:02:04.946Z,97587.32
2019-04-06T14:04:40.909Z,97591.58
2019-04-06T14:07:22.541Z,97587.95
2019-04-06T14:10:04.538Z,97589.56
2019-04-06T14:12:58.346Z,97581.28
2019-04-06T14:15:43.263Z,97592.20
2019-04-06T14:18:21.176Z,97587.41
2019-04-06T14:21:02.854Z,97583.38
2019-04-06T14:23:56.905Z,97584.09
2019-04-06T14:26:37.380Z,97575.27
2019-04-06T14:29:23.873Z,97575.48
2019-04-06T14:32:02.710Z,97576.94
2019-04-06T14:34:45.898Z,97571.95
2019-04-06T14:37:39.825Z,97569.13
2019-04-06T14:40:31.632Z,97569.98
2019-04-06T14:43:25.156Z,97570.30
2019-04-06T14:46:19.418Z,97565.30
2019-04-06T14:49:17.186Z,97563.62
2019-04-06T14:51:52.997Z,97559.95
2019-04-06T14:54:39.995Z,97562.57
2019-04-06T14:57:23.786Z,97567.50
2019-04-06T15:00:02.770Z,97564.50
2019-04-06T15:02:40.271Z,97568.15
2019-04-06T15:05:20.997Z,97570.20
2019-04-06T15:07:59.004Z,97572.45
2019-04-06T15:10:44.312Z,97569.75
2019-04-06T15:13:18.982Z,97567.02
2019-04-06T15:16:06.878Z,97572.45
2019-04-06T15:18:42.256Z,97572.94
2019-04-06T15:21:16.645Z,97575.48
2019-04-06T15:23:52.915Z,97574.95
2019-04-06T15:26:29.528Z,97571.85
2019-04-06T15:29:20.158Z,97571.92
2019-04-06T15:32:20.490Z,97571.80
2019-04-06T15:35:07.292Z,97561.99
2019-04-06T15:37:48.985Z,97564.93
2019-04-06T15:40:45.939Z,97560.61
2019-04-06T15:43:25.198Z,97561.13
2019-04-06T15:46:12.095Z,97553.25
2019-04-06T15:49:02.807Z,97558.77
2019-04-06T15:51:53.647Z,97552.61
2019-04-06T15:54:31.503Z,97558.39
2019-04-06T15:57:19.589Z,97555.13
2019-04-06T15:59:54.586Z,97552.13
2019-04-06T16:02:48.479Z,97556.16
2019-04-06T16:05:29.229Z,97552.42
2019-04-06T16:08:09.452Z,97557.84
2019-04-06T16:10:55.380Z,97550.59
2019-04-06T16:13:42.207Z,97554.94
2019-04-06T16:16:36.121Z,97555.24
2019-04-06T16:19:23.185Z,97554.94
2019-04-06T16:22:14.144Z,97560.16
2019-04-06T16:25:01.971Z,97562.42
2019-04-06T16:27:41.085Z,97557.03
2019-04-06T16:30:21.622Z,97562.55
2019-04-06T16:33:02.752Z,97565.03
2019-04-06T16:35:43.840Z,97568.03
2019-04-06T16:38:22.103Z,97565.85
2019-04-06T16:41:09.588Z,97562.64
2019-04-06T16:43:56.543Z,97562.34
2019-04-06T16:46:43.657Z,97563.70
2019-04-06T16:49:37.965Z,97561.30
2019-04-06T16:52:14.009Z,97567.86
2019-04-06T16:55:05.437Z,97568.15
2019-04-06T16:57:44.928Z,97566.81
2019-04-06T17:00:29.636Z,97570.55
2019-04-06T17:03:06.713Z,97564.31
2019-04-06T17:05:58.330Z,97570.55
2019-04-06T17:08:32.370Z,97569.48
2019-04-06T17:11:30.811Z,97569.08
2019-04-06T17:14:17.517Z,97570.02
2019-04-06T17:17:00.754Z,97576.31
2019-04-06T17:19:49.587Z,97577.24
2019-04-06T17:22:26.284Z,97576.03
2019-04-06T17:25:06.771Z,97578.06
2019-04-06T17:27:49.237Z,97580.13
2019-04-06T17:30:29.547Z,97579.30
2019-04-06T17:33:09.981Z,97580.09
2019-04-06T17:35:56.111Z,97579.87
2019-04-06T17:38:30.466Z,97574.84
2019-04-06T17:41:05.422Z,97573.38
2019-04-06T17:43:52.507Z,97581.48
2019-04-06T17:46:36.887Z,97579.31
2019-04-06T17:49:24.755Z,97576.23
2019-04-06T17:52:19.393Z,97580.16
2019-04-06T17:54:58.221Z,97583.16
2019-04-06T17:57:44.799Z,97579.70
2019-04-06T18:00:37.060Z,97579.48
2019-04-06T18:03:31.369Z,97581.62
2019-04-06T18:06:27.475Z,97585.80
2019-04-06T18:09:21.047Z,97587.25
2019-04-06T18:11:55.176Z,97595.06
2019-04-06T18:14:24.668Z,97592.73
2019-04-06T18:16:53.353Z,97586.88
2019-04-06T18:19:22.354Z,97590.92
2019-04-06T18:21:51.093Z,97593.63
2019-04-06T18:24:20.233Z,97597.47
2019-04-06T18:26:49.121Z,97603.16
2019-04-06T18:29:18.407Z,97606.05
2019-04-06T18:31:59.183Z,97608.05
2019-04-06T18:34:28.529Z,97601.83
2019-04-06T18:37:25.729Z,97607.35
2019-04-06T18:39:55.714Z,97607.06
2019-04-06T18:42:24.542Z,97603.27
2019-04-06T18:44:53.406Z,97605.50
2019-04-06T18:47:22.132Z,97606.55
2019-04-06T18:49:50.887Z,97602.89
2019-04-06T18:52:20.078Z,97600.61
2019-04-06T18:54:48.854Z,97600.36
2019-04-06T18:57:17.592Z,97602.91
2019-04-06T18:59:46.359Z,97606.08
2019-04-06T19:02:15.115Z,97606.28
2019-04-06T19:04:44.036Z,97603.48
2019-04-06T19:07:12.950Z,97609.33
2019-04-06T19:09:41.862Z,97605.80
2019-04-06T19:12:10.721Z,97604.82
2019-04-06T19:14:39.512Z,97611.03
2019-04-06T19:17:08.502Z,97610.22
2019-04-06T19:19:37.434Z,97610.89
2019-04-06T19:22:06.129Z,97610.23
2019-04-06T19:24:35.119Z,97607.70
2019-04-06T19:27:04.471Z,97605.53
2019-04-06T19:29:33.198Z,97605.88
2019-04-06T19:32:02.841Z,97609.22
2019-04-06T19:34:31.593Z,97608.22
2019-04-06T19:37:00.356Z,97607.39
2019-04-06T19:39:29.199Z,97600.91
2019-04-06T19:41:58.375Z,97610.43
2019-04-06T19:44:27.268Z,97600.63
2019-04-06T19:47:02.765Z,97607.77
2019-04-06T19:49:50.131Z,97609.27
2019-04-06T19:52:26.719Z,97599.62
2019-04-06T19:55:08.992Z,97602.27
2019-04-06T19:57:43.689Z,97603.77
2019-04-06T20:00:13.366Z,97606.44
2019-04-06T20:03:06.369Z,97603.60
2019-04-06T20:05:35.611Z,97601.10
2019-04-06T20:08:15.401Z,97594.63
2019-04-06T20:10:55.467Z,97600.63
2019-04-06T20:13:47.447Z,97598.11
2019-04-06T20:19:18.045Z,97596.79
2019-04-06T20:21:57.902Z,97591.63
2019-04-06T20:24:32.811Z,97607.14
2019-04-06T20:27:07.128Z,97576.27
2019-04-06T20:29:53.501Z,97583.61
2019-04-06T20:32:22.290Z,97586.27
2019-04-06T20:34:53.632Z,97581.61
2019-04-06T20:37:22.649Z,97582.60
2019-04-06T20:39:54.289Z,97575.75
2019-04-06T20:42:41.616Z,97575.75
2019-04-06T20:45:16.816Z,97577.25
2019-04-06T20:47:50.661Z,97572.06
2019-04-06T20:50:22.401Z,97575.39
2019-04-06T20:56:30.272Z,97579.34
2019-04-06T20:59:05.393Z,97579.34
2019-04-06T21:01:35.962Z,97583.84
2019-04-06T21:04:09.215Z,97578.17
2019-04-06T21:06:44.030Z,97575.08
2019-04-06T21:09:20.044Z,97578.57
2019-04-06T21:12:23.696Z,97576.74
2019-04-06T21:14:58.877Z,97582.39
2019-04-06T21:17:27.935Z,97586.63
2019-04-06T21:20:00.196Z,97579.71
2019-04-06T21:22:29.529Z,97585.37
2019-04-06T21:25:01.779Z,97583.96
2019-04-06T21:27:36.232Z,97591.78
2019-04-06T21:30:15.209Z,97591.78
2019-04-06T21:32:55.472Z,97572.48
2019-04-06T21:35:24.362Z,97589.28
2019-04-06T21:38:05.531Z,97590.14
2019-04-06T21:40:35.102Z,97592.22
2019-04-06T21:43:09.076Z,97587.98
2019-04-06T21:45:41.039Z,97588.98
2019-04-06T21:48:10.449Z,97585.14
2019-04-06T21:50:42.366Z,97587.28
2019-04-06T21:53:14.899Z,97586.87
2019-04-06T21:55:48.380Z,97586.87
2019-04-06T21:58:17.721Z,97586.64
2019-04-06T22:01:02.663Z,97589.84
2019-04-06T22:03:36.515Z,97592.16
2019-04-06T22:06:09.935Z,97598.16
2019-04-06T22:08:47.087Z,97590.20
2019-04-06T22:11:23.966Z,97593.57
2019-04-06T22:13:51.462Z,97599.98
2019-04-06T22:16:32.506Z,97603.13
2019-04-06T22:19:07.945Z,97607.93
2019-04-06T22:21:47.250Z,97606.34
2019-04-06T22:24:17.118Z,97596.12
2019-04-06T22:26:46.363Z,97600.43
2019-04-06T22:29:17.297Z,97599.38
2019-04-06T22:31:46.416Z,97591.91
2019-04-06T22:34:16.466Z,97591.91
2019-04-06T22:36:48.111Z,97603.03
2019-04-06T22:39:17.183Z,97604.67
2019-04-06T22:41:48.192Z,97598.65
2019-04-06T22:44:25.338Z,97602.66
2019-04-06T22:46:56.813Z,97595.50
2019-04-06T22:49:29.379Z,97600.66
2019-04-06T22:52:03.587Z,97594.58
2019-04-06T22:54:34.452Z,97604.64
2019-04-06T22:57:04.363Z,97605.33
2019-04-06T22:59:34.709Z,97599.52
2019-04-06T23:02:09.327Z,97591.27
2019-04-06T23:04:55.047Z,97592.11
2019-04-06T23:07:28.063Z,97601.81
2019-04-06T23:09:57.695Z,97603.02
2019-04-06T23:12:26.828Z,97604.34
2019-04-06T23:14:58.262Z,97603.44
2019-04-06T23:17:31.818Z,97603.22
2019-04-06T23:20:16.330Z,97605.98
2019-04-06T23:22:58.149Z,97612.86
2019-04-06T23:25:31.390Z,97612.83
2019-04-06T23:28:00.273Z,97610.44
2019-04-06T23:30:29.638Z,97614.20
2019-04-06T23:32:58.504Z,97617.58
2019-04-06T23:35:35.917Z,97609.91
2019-04-06T23:38:08.540Z,97614.08
2019-04-06T23:40:38.839Z,97620.19
2019-04-06T23:43:11.733Z,97621.06
2019-04-06T23:45:41.139Z,97620.48
2019-04-06T23:48:12.800Z,97619.28
2019-04-06T23:50:52.939Z,97619.97
2019-04-06T23:53:22.026Z,97621.90
2019-04-06T23:55:55.291Z,97617.95
2019-04-06T23:58:24.470Z,97629.26
